createdAt,value
2023-03-20T00:02:24.205Z,101688.81
2023-03-20T00:04:55.948Z,101691.03
2023-03-20T00:07:23.694Z,101693.41
2023-03-20T00:10:02.795Z,101695.59
2023-03-20T00:12:50.465Z,101688.31
2023-03-20T00:15:33.549Z,101695.63
2023-03-20T00:18:01.199Z,101690.16
2023-03-20T00:20:31.701Z,101685.44
2023-03-20T00:22:59.805Z,101691.22
2023-03-20T00:25:28.495Z,101691.25
2023-03-20T00:27:56.716Z,101688.22
2023-03-20T00:30:29.267Z,101689.41
2023-03-20T00:32:59.039Z,101681.78
2023-03-20T00:35:32.123Z,101681.53
2023-03-20T00:38:03.911Z,101682.03
2023-03-20T00:40:32.076Z,101678.50
2023-03-20T00:43:03.580Z,101682.53
2023-03-20T00:45:34.577Z,101686.16
2023-03-20T00:48:03.757Z,101673.41
2023-03-20T00:50:31.946Z,101674.13
2023-03-20T00:52:59.584Z,101676.47
2023-03-20T00:55:29.587Z,101680.31
2023-03-20T00:58:03.044Z,101676.47
2023-03-20T01:00:36.550Z,101681.41
2023-03-20T01:03:14.486Z,101675.84
2023-03-20T01:05:43.321Z,101682.97
2023-03-20T01:08:15.116Z,101675.22
2023-03-20T01:10:44.637Z,101684.91
2023-03-20T01:13:32.640Z,101681.38
2023-03-20T01:16:00.644Z,101677.88
2023-03-20T01:18:28.376Z,101677.34
2023-03-20T01:20:55.979Z,101685.78
2023-03-20T01:23:24.591Z,101677.53
2023-03-20T01:25:54.802Z,101680.09
2023-03-20T01:28:24.443Z,101682.56
2023-03-20T01:30:52.763Z,101676.34
2023-03-20T01:33:40.084Z,101674.03
2023-03-20T01:36:11.962Z,101677.75
2023-03-20T01:38:40.590Z,101682.09
2023-03-20T01:41:13.545Z,101685.06
2023-03-20T01:43:43.282Z,101685.69
2023-03-20T01:46:18.629Z,101682.75
2023-03-20T01:48:52.341Z,101681.53
2023-03-20T01:51:22.927Z,101688.28
2023-03-20T01:53:55.031Z,101683.81
2023-03-20T01:56:33.013Z,101681.13
2023-03-20T01:59:09.662Z,101677.16
2023-03-20T02:01:38.375Z,101677.19
2023-03-20T02:04:09.222Z,101679.19
2023-03-20T02:06:38.678Z,101677.56
2023-03-20T02:09:08.920Z,101673.72
2023-03-20T02:11:38.391Z,101682.69
2023-03-20T02:14:07.153Z,101688.00
2023-03-20T02:16:35.607Z,101681.72
2023-03-20T02:19:06.526Z,101679.53
2023-03-20T02:21:49.130Z,101687.03
2023-03-20T02:24:48.629Z,101681.22
2023-03-20T02:27:43.299Z,101674.00
2023-03-20T02:30:55.725Z,101680.59
2023-03-20T02:33:53.794Z,101673.34
2023-03-20T02:36:35.886Z,101676.81
2023-03-20T02:39:15.252Z,101682.66
2023-03-20T02:41:47.894Z,101683.28
2023-03-20T02:44:36.433Z,101677.56
2023-03-20T02:47:06.872Z,101679.59
2023-03-20T02:49:52.143Z,101689.06
2023-03-20T02:52:32.566Z,101683.81
2023-03-20T02:55:19.011Z,101684.28
2023-03-20T02:58:03.408Z,101688.66
2023-03-20T03:00:40.002Z,101681.38
2023-03-20T03:03:20.776Z,101680.16
2023-03-20T03:05:55.744Z,101677.69
2023-03-20T03:08:28.751Z,101672.16
2023-03-20T03:11:07.502Z,101678.72
2023-03-20T03:13:56.770Z,101679.72
2023-03-20T03:16:30.740Z,101682.47
2023-03-20T03:19:05.246Z,101674.84
2023-03-20T03:21:35.502Z,101673.78
2023-03-20T03:24:05.351Z,101670.47
2023-03-20T03:26:39.953Z,101676.00
2023-03-20T03:29:15.814Z,101674.50
2023-03-20T03:31:46.177Z,101672.06
2023-03-20T03:34:17.860Z,101674.22
2023-03-20T03:37:06.717Z,101671.09
2023-03-20T03:39:51.189Z,101673.88
2023-03-20T03:42:31.262Z,101663.44
2023-03-20T03:45:02.412Z,101663.06
2023-03-20T03:47:40.308Z,101658.13
2023-03-20T03:50:17.051Z,101661.47
2023-03-20T03:52:47.049Z,101656.50
2023-03-20T03:55:39.617Z,101665.81
2023-03-20T03:58:22.731Z,101663.28
2023-03-20T04:00:52.549Z,101666.47
2023-03-20T04:03:24.436Z,101664.13
2023-03-20T04:05:56.343Z,101661.56
2023-03-20T04:08:23.815Z,101664.22
2023-03-20T04:10:51.457Z,101663.50
2023-03-20T04:13:19.172Z,101661.34
2023-03-20T04:15:46.790Z,101670.50
2023-03-20T04:18:19.695Z,101672.00
2023-03-20T04:20:47.671Z,101673.28
2023-03-20T04:23:15.879Z,101669.25
2023-03-20T04:25:44.871Z,101681.75
2023-03-20T04:28:12.385Z,101684.53
2023-03-20T04:30:40.014Z,101681.63
2023-03-20T04:33:08.523Z,101685.81
2023-03-20T04:35:36.653Z,101680.91
2023-03-20T04:38:05.411Z,101681.75
2023-03-20T04:40:33.615Z,101687.41
2023-03-20T04:43:01.118Z,101693.16
2023-03-20T04:45:28.583Z,101694.41
2023-03-20T04:47:56.260Z,101695.59
2023-03-20T04:50:24.297Z,101687.19
2023-03-20T04:52:51.742Z,101686.50
2023-03-20T04:55:22.755Z,101691.88
2023-03-20T04:57:51.043Z,101693.56
2023-03-20T05:00:19.013Z,101701.66
2023-03-20T05:02:47.005Z,101702.66
2023-03-20T05:05:14.402Z,101707.41
2023-03-20T05:07:44.035Z,101707.03
2023-03-20T05:10:12.080Z,101710.88
2023-03-20T05:12:39.476Z,101704.81
2023-03-20T05:15:09.060Z,101697.78
2023-03-20T05:17:36.864Z,101716.97
2023-03-20T05:20:05.310Z,101719.25
2023-03-20T05:22:33.245Z,101719.16
2023-03-20T05:25:01.410Z,101709.47
2023-03-20T05:27:30.328Z,101717.50
2023-03-20T05:29:57.890Z,101709.84
2023-03-20T05:32:25.546Z,101715.03
2023-03-20T05:34:53.098Z,101719.63
2023-03-20T05:37:21.317Z,101718.06
2023-03-20T05:39:48.691Z,101718.56
2023-03-20T05:42:16.236Z,101716.88
2023-03-20T05:44:43.863Z,101721.00
2023-03-20T05:47:11.661Z,101722.72
2023-03-20T05:49:39.016Z,101718.41
2023-03-20T05:52:08.261Z,101719.78
2023-03-20T05:54:37.122Z,101731.16
2023-03-20T05:57:10.000Z,101730.47
2023-03-20T05:59:37.531Z,101734.72
2023-03-20T06:02:04.893Z,101737.78
2023-03-20T06:04:37.424Z,101741.38
2023-03-20T06:07:06.402Z,101732.66
2023-03-20T06:09:34.516Z,101736.25
2023-03-20T06:12:02.037Z,101733.38
2023-03-20T06:14:29.823Z,101736.03
2023-03-20T06:16:58.977Z,101737.06
2023-03-20T06:19:26.732Z,101734.84
2023-03-20T06:21:54.196Z,101746.25
2023-03-20T06:24:21.759Z,101743.75
2023-03-20T06:26:49.689Z,101749.16
2023-03-20T06:29:17.447Z,101746.00
2023-03-20T06:31:46.875Z,101744.81
2023-03-20T06:34:14.989Z,101741.28
2023-03-20T06:36:47.066Z,101737.53
2023-03-20T06:39:14.962Z,101742.41
2023-03-20T06:41:42.613Z,101731.72
2023-03-20T06:44:10.950Z,101724.19
2023-03-20T06:46:38.468Z,101727.50
2023-03-20T06:49:09.519Z,101722.38
2023-03-20T06:51:37.607Z,101718.09
2023-03-20T06:54:05.191Z,101726.34
2023-03-20T06:56:33.005Z,101722.50
2023-03-20T06:59:00.465Z,101723.88
2023-03-20T07:01:28.748Z,101724.97
2023-03-20T07:03:56.275Z,101725.09
2023-03-20T07:06:23.762Z,101730.16
2023-03-20T07:08:53.005Z,101731.84
2023-03-20T07:11:21.160Z,101724.38
2023-03-20T07:13:50.756Z,101716.00
2023-03-20T07:16:18.418Z,101718.91
2023-03-20T07:18:45.929Z,101712.34
2023-03-20T07:21:20.431Z,101717.50
2023-03-20T07:23:49.196Z,101718.38
2023-03-20T07:26:17.113Z,101717.53
2023-03-20T07:28:45.310Z,101721.97
2023-03-20T07:31:25.574Z,101717.00
2023-03-20T07:33:53.126Z,101713.34
2023-03-20T07:36:21.428Z,101718.38
2023-03-20T07:38:48.865Z,101710.53
2023-03-20T07:41:16.905Z,101707.84
2023-03-20T07:43:44.912Z,101712.19
2023-03-20T07:46:15.574Z,101712.06
2023-03-20T07:48:43.342Z,101715.09
2023-03-20T07:51:10.943Z,101719.38
2023-03-20T07:53:41.214Z,101721.09
2023-03-20T07:56:09.527Z,101711.59
2023-03-20T07:58:37.596Z,101725.19
2023-03-20T08:01:05.379Z,101719.94
2023-03-20T08:03:32.995Z,101721.81
2023-03-20T08:06:13.304Z,101722.81
2023-03-20T08:08:41.128Z,101715.69
2023-03-20T08:11:10.100Z,101729.78
2023-03-20T08:13:37.922Z,101732.66
2023-03-20T08:16:06.160Z,101727.66
2023-03-20T08:18:36.146Z,101721.63
2023-03-20T08:21:05.260Z,101717.47
2023-03-20T08:23:32.794Z,101720.66
2023-03-20T08:26:01.644Z,101707.84
2023-03-20T08:28:46.231Z,101723.75
2023-03-20T08:31:15.465Z,101717.06
2023-03-20T08:33:43.582Z,101716.78
2023-03-20T08:36:11.672Z,101716.16
2023-03-20T08:38:39.529Z,101707.22
2023-03-20T08:41:07.813Z,101708.69
2023-03-20T08:43:36.511Z,101706.69
2023-03-20T08:46:04.524Z,101712.94
2023-03-20T08:48:33.106Z,101707.84
2023-03-20T08:51:08.429Z,101709.53
2023-03-20T08:53:36.981Z,101703.19
2023-03-20T08:56:05.088Z,101712.34
2023-03-20T08:58:32.703Z,101708.53
2023-03-20T09:01:05.489Z,101697.13
2023-03-20T09:03:33.010Z,101701.91
2023-03-20T09:06:01.895Z,101703.63
2023-03-20T09:08:29.834Z,101703.56
2023-03-20T09:11:00.541Z,101702.19
2023-03-20T09:13:28.555Z,101699.91
2023-03-20T09:15:56.973Z,101697.06
2023-03-20T09:18:25.504Z,101695.06
2023-03-20T09:20:53.195Z,101695.91
2023-03-20T09:23:20.664Z,101694.66
2023-03-20T09:25:51.622Z,101700.75
2023-03-20T09:28:19.197Z,101690.47
2023-03-20T09:30:48.223Z,101687.75
2023-03-20T09:33:16.137Z,101690.38
2023-03-20T09:35:43.956Z,101698.47
2023-03-20T09:38:12.461Z,101685.00
2023-03-20T09:40:59.022Z,101676.81
2023-03-20T09:43:53.905Z,101679.44
2023-03-20T09:46:49.502Z,101670.41
2023-03-20T09:49:37.588Z,101672.22
2023-03-20T09:52:13.013Z,101679.47
2023-03-20T09:54:53.959Z,101674.88
2023-03-20T09:57:24.547Z,101663.44
2023-03-20T09:59:57.721Z,101673.50
2023-03-20T10:02:45.988Z,101659.22
2023-03-20T10:05:39.061Z,101670.97
2023-03-20T10:08:16.148Z,101662.19
2023-03-20T10:10:43.858Z,101664.38
2023-03-20T10:13:26.483Z,101659.00
2023-03-20T10:16:02.847Z,101662.81
2023-03-20T10:18:35.608Z,101659.78
2023-03-20T10:21:13.795Z,101656.31
2023-03-20T10:23:59.029Z,101654.00
2023-03-20T10:26:28.735Z,101644.50
2023-03-20T10:29:19.519Z,101649.25
2023-03-20T10:32:01.193Z,101637.63
2023-03-20T10:34:49.136Z,101640.09
2023-03-20T10:37:32.583Z,101637.75
2023-03-20T10:40:23.586Z,101633.13
2023-03-20T10:42:54.294Z,101629.19
2023-03-20T10:45:27.856Z,101622.00
2023-03-20T10:47:58.938Z,101629.47
2023-03-20T10:50:33.844Z,101630.03
2023-03-20T10:53:03.309Z,101633.28
2023-03-20T10:55:38.143Z,101626.25
2023-03-20T10:58:18.562Z,101628.25
2023-03-20T11:00:56.272Z,101627.06
2023-03-20T11:03:29.612Z,101623.38
2023-03-20T11:06:09.732Z,101626.72
2023-03-20T11:08:49.379Z,101616.63
2023-03-20T11:11:26.704Z,101611.91
2023-03-20T11:13:54.923Z,101607.69
2023-03-20T11:16:36.824Z,101606.16
2023-03-20T11:19:07.553Z,101608.16
2023-03-20T11:21:57.791Z,101605.00
2023-03-20T11:24:46.464Z,101598.78
2023-03-20T11:27:20.306Z,101599.44
2023-03-20T11:29:51.284Z,101599.91
2023-03-20T11:32:42.305Z,101597.75
2023-03-20T11:35:19.343Z,101602.44
2023-03-20T11:37:51.277Z,101601.00
2023-03-20T11:40:44.940Z,101590.03
2023-03-20T11:43:18.835Z,101590.66
2023-03-20T11:45:50.767Z,101586.41
2023-03-20T11:48:45.941Z,101584.47
2023-03-20T11:51:20.159Z,101588.44
2023-03-20T11:54:01.886Z,101591.97
2023-03-20T11:56:33.395Z,101582.13
2023-03-20T11:59:10.585Z,101588.44
2023-03-20T12:01:44.950Z,101578.78
2023-03-20T12:04:19.291Z,101576.84
2023-03-20T12:07:00.839Z,101579.19
2023-03-20T12:09:42.867Z,101576.09
2023-03-20T12:12:19.087Z,101581.09
2023-03-20T12:15:05.503Z,101588.38
2023-03-20T12:17:50.071Z,101584.69
2023-03-20T12:20:37.041Z,101572.53
2023-03-20T12:23:11.302Z,101562.84
2023-03-20T12:25:50.204Z,101568.75
2023-03-20T12:28:32.512Z,101562.84
2023-03-20T12:30:59.937Z,101561.38
2023-03-20T12:33:49.959Z,101558.13
2023-03-20T12:36:28.940Z,101552.59
2023-03-20T12:38:57.233Z,101548.25
2023-03-20T12:42:07.414Z,101548.72
2023-03-20T12:44:47.308Z,101552.13
2023-03-20T12:47:44.965Z,101540.84
2023-03-20T12:50:36.231Z,101546.19
2023-03-20T12:53:26.703Z,101548.53
2023-03-20T12:56:00.769Z,101542.09
2023-03-20T12:58:50.192Z,101536.28
2023-03-20T13:01:22.038Z,101541.97
2023-03-20T13:04:14.368Z,101526.38
2023-03-20T13:06:59.095Z,101535.09
2023-03-20T13:09:44.707Z,101528.81
2023-03-20T13:12:24.701Z,101518.84
2023-03-20T13:15:05.404Z,101518.34
2023-03-20T13:17:35.813Z,101512.53
2023-03-20T13:20:27.678Z,101506.06
2023-03-20T13:23:10.504Z,101513.03
2023-03-20T13:26:00.877Z,101505.31
2023-03-20T13:28:47.173Z,101510.34
2023-03-20T13:31:34.404Z,101506.34
2023-03-20T13:34:31.704Z,101502.09
2023-03-20T13:37:23.729Z,101504.25
2023-03-20T13:40:13.495Z,101497.66
2023-03-20T13:42:49.524Z,101494.66
2023-03-20T13:45:41.247Z,101500.19
2023-03-20T13:48:26.956Z,101496.09
2023-03-20T13:51:07.874Z,101497.34
2023-03-20T13:54:03.033Z,101496.22
2023-03-20T13:56:44.280Z,101500.44
2023-03-20T13:59:38.251Z,101500.91
2023-03-20T14:02:21.770Z,101488.41
2023-03-20T14:05:03.715Z,101491.13
2023-03-20T14:07:37.450Z,101494.06
2023-03-20T14:10:37.525Z,101494.66
2023-03-20T14:13:11.601Z,101492.75
2023-03-20T14:15:57.934Z,101481.72
2023-03-20T14:18:26.636Z,101483.53
2023-03-20T14:21:04.581Z,101481.34
2023-03-20T14:23:39.372Z,101478.28
2023-03-20T14:26:18.315Z,101487.66
2023-03-20T14:28:54.557Z,101480.41
2023-03-20T14:31:31.097Z,101474.66
2023-03-20T14:34:18.377Z,101469.94
2023-03-20T14:36:51.878Z,101466.94
2023-03-20T14:39:54.057Z,101467.00
2023-03-20T14:42:48.227Z,101460.94
2023-03-20T14:45:43.747Z,101456.72
2023-03-20T14:48:46.291Z,101460.25
2023-03-20T14:51:19.408Z,101458.66
2023-03-20T14:53:58.754Z,101446.63
2023-03-20T14:56:33.353Z,101446.28
2023-03-20T14:59:07.318Z,101446.16
2023-03-20T15:01:38.183Z,101436.69
2023-03-20T15:04:28.194Z,101443.53
2023-03-20T15:07:12.319Z,101439.81
2023-03-20T15:09:44.596Z,101440.50
2023-03-20T15:12:23.795Z,101431.41
2023-03-20T15:14:59.500Z,101434.44
2023-03-20T15:17:37.320Z,101436.06
2023-03-20T15:20:16.611Z,101445.38
2023-03-20T15:22:58.533Z,101439.00
2023-03-20T15:25:32.768Z,101441.69
2023-03-20T15:28:05.904Z,101443.56
2023-03-20T15:30:38.112Z,101445.84
2023-03-20T15:33:06.744Z,101441.56
2023-03-20T15:35:34.420Z,101447.25
2023-03-20T15:38:07.509Z,101449.41
2023-03-20T15:40:50.493Z,101447.69
2023-03-20T15:43:22.867Z,101445.88
2023-03-20T15:46:02.917Z,101453.28
2023-03-20T15:48:37.702Z,101452.53
2023-03-20T15:51:11.549Z,101451.44
2023-03-20T15:53:40.913Z,101454.78
2023-03-20T15:56:18.255Z,101458.56
2023-03-20T15:58:50.589Z,101456.31
2023-03-20T16:01:23.978Z,101471.72
2023-03-20T16:03:52.965Z,101466.50
2023-03-20T16:06:24.448Z,101465.38
2023-03-20T16:09:05.287Z,101471.59
2023-03-20T16:11:40.797Z,101471.50
2023-03-20T16:14:26.283Z,101468.97
2023-03-20T16:16:56.216Z,101468.00
2023-03-20T16:19:26.436Z,101470.59
2023-03-20T16:21:58.603Z,101474.28
2023-03-20T16:24:38.390Z,101473.78
2023-03-20T16:27:09.081Z,101476.59
2023-03-20T16:29:42.354Z,101477.69
2023-03-20T16:32:30.597Z,101479.97
2023-03-20T16:34:59.474Z,101487.59
2023-03-20T16:37:31.972Z,101486.75
2023-03-20T16:40:18.346Z,101481.75
2023-03-20T16:42:46.616Z,101483.72
2023-03-20T16:45:30.428Z,101483.03
2023-03-20T16:48:26.122Z,101486.56
2023-03-20T16:51:07.698Z,101481.50
2023-03-20T16:53:44.809Z,101482.94
2023-03-20T16:56:22.787Z,101487.97
2023-03-20T16:58:50.318Z,101490.53
2023-03-20T17:01:29.018Z,101495.03
2023-03-20T17:04:11.394Z,101495.03
2023-03-20T17:06:46.241Z,101501.66
2023-03-20T17:09:13.716Z,101500.41
2023-03-20T17:11:47.962Z,101504.06
2023-03-20T17:14:20.781Z,101504.06
2023-03-20T17:16:51.338Z,101503.63
2023-03-20T17:19:19.365Z,101504.31
2023-03-20T17:21:47.839Z,101503.94
2023-03-20T17:24:17.390Z,101498.69
2023-03-20T17:26:52.639Z,101505.19
2023-03-20T17:29:20.430Z,101510.09
2023-03-20T17:31:48.003Z,101514.16
2023-03-20T17:34:15.578Z,101511.63
2023-03-20T17:36:43.268Z,101511.34
2023-03-20T17:39:21.068Z,101498.25
2023-03-20T17:41:48.946Z,101506.13
2023-03-20T17:44:16.404Z,101508.75
2023-03-20T17:47:03.696Z,101498.06
2023-03-20T17:49:33.905Z,101492.72
2023-03-20T17:52:01.372Z,101507.31
2023-03-20T17:54:33.092Z,101502.19
2023-03-20T17:57:01.660Z,101496.50
2023-03-20T17:59:31.257Z,101491.16
2023-03-20T18:01:58.812Z,101492.75
2023-03-20T18:04:27.175Z,101501.47
2023-03-20T18:06:57.997Z,101495.44
2023-03-20T18:09:26.188Z,101491.59
2023-03-20T18:11:55.336Z,101484.88
2023-03-20T18:14:26.237Z,101494.19
2023-03-20T18:16:53.775Z,101499.78
2023-03-20T18:19:25.776Z,101500.06
2023-03-20T18:21:55.042Z,101494.03
2023-03-20T18:24:23.389Z,101501.75
2023-03-20T18:26:52.031Z,101498.09
2023-03-20T18:29:20.505Z,101499.78
2023-03-20T18:31:49.500Z,101505.22
2023-03-20T18:34:18.662Z,101512.50
2023-03-20T18:36:46.498Z,101513.75
2023-03-20T18:39:24.122Z,101508.66
2023-03-20T18:41:52.458Z,101509.63
2023-03-20T18:44:19.995Z,101502.16
2023-03-20T18:46:47.590Z,101501.81
2023-03-20T18:49:17.423Z,101504.63
2023-03-20T18:51:46.991Z,101498.13
2023-03-20T18:54:15.689Z,101509.31
2023-03-20T18:56:44.752Z,101502.28
2023-03-20T18:59:13.203Z,101503.13
2023-03-20T19:01:41.298Z,101496.03
2023-03-20T19:04:19.674Z,101505.91
2023-03-20T19:06:48.739Z,101496.53
2023-03-20T19:09:18.256Z,101495.75
2023-03-20T19:11:47.385Z,101501.44
2023-03-20T19:14:15.027Z,101498.56
2023-03-20T19:16:43.112Z,101497.63
2023-03-20T19:19:15.976Z,101488.09
2023-03-20T19:21:43.667Z,101492.00
2023-03-20T19:24:16.052Z,101492.47
2023-03-20T19:26:43.566Z,101491.28
2023-03-20T19:29:13.951Z,101494.81
2023-03-20T19:31:43.494Z,101482.88
2023-03-20T19:34:28.052Z,101487.91
2023-03-20T19:37:06.592Z,101488.19
2023-03-20T19:39:34.117Z,101482.88
2023-03-20T19:42:19.868Z,101487.03
2023-03-20T19:45:09.796Z,101478.31
2023-03-20T19:47:39.692Z,101483.41
2023-03-20T19:50:34.083Z,101477.38
2023-03-20T19:53:12.741Z,101474.31
2023-03-20T19:55:40.653Z,101471.09
2023-03-20T19:58:08.481Z,101466.00
2023-03-20T20:01:11.639Z,101471.59
2023-03-20T20:03:27.863Z,101466.50
2023-03-20T20:06:02.377Z,101469.38
2023-03-20T20:08:45.185Z,101464.81
2023-03-20T20:11:16.232Z,101466.16
2023-03-20T20:14:04.205Z,101470.88
2023-03-20T20:16:31.632Z,101469.19
2023-03-20T20:19:04.301Z,101468.72
2023-03-20T20:24:22.633Z,101465.06
2023-03-20T20:27:15.324Z,101461.22
2023-03-20T20:29:47.895Z,101459.88
2023-03-20T20:32:16.219Z,101464.69
2023-03-20T20:40:21.057Z,101452.97
2023-03-20T20:42:52.065Z,101452.25
2023-03-20T20:45:28.072Z,101446.31
2023-03-20T20:47:57.297Z,101445.72
2023-03-20T20:50:28.539Z,101450.31
2023-03-20T20:52:56.964Z,101447.44
2023-03-20T20:55:25.741Z,101441.38
2023-03-20T20:57:55.864Z,101438.72
2023-03-20T21:00:37.113Z,101435.19
2023-03-20T21:03:13.118Z,101438.25
2023-03-20T21:05:43.478Z,101433.50
2023-03-20T21:08:13.531Z,101445.00
2023-03-20T21:10:41.133Z,101439.06
2023-03-20T21:13:08.736Z,101434.97
2023-03-20T21:15:37.419Z,101431.53
2023-03-20T21:18:05.369Z,101426.38
2023-03-20T21:20:33.762Z,101430.69
2023-03-20T21:23:01.341Z,101426.56
2023-03-20T21:25:39.687Z,101428.75
2023-03-20T21:28:09.610Z,101420.50
2023-03-20T21:30:44.154Z,101416.41
2023-03-20T21:33:24.002Z,101416.41
2023-03-20T21:35:52.813Z,101413.47
2023-03-20T21:41:10.160Z,101411.03
2023-03-20T21:43:38.170Z,101418.56
2023-03-20T21:55:05.301Z,101409.63
2023-03-20T21:57:55.732Z,101415.78
2023-03-20T22:02:58.248Z,101417.38
2023-03-20T22:06:02.545Z,101416.75
2023-03-20T22:14:51.667Z,101411.25
2023-03-20T22:20:15.234Z,101408.13
2023-03-20T22:25:56.017Z,101413.44
2023-03-20T22:37:17.092Z,101423.13
2023-03-20T22:39:54.438Z,101422.06
2023-03-20T22:45:00.628Z,101417.34
2023-03-20T22:47:31.033Z,101417.44
2023-03-20T22:49:58.965Z,101423.50
2023-03-20T22:52:38.101Z,101412.13
2023-03-20T22:55:10.049Z,101413.81
2023-03-20T22:57:45.581Z,101400.03
2023-03-20T23:00:25.220Z,101405.38
2023-03-20T23:02:57.340Z,101400.00
2023-03-20T23:05:31.224Z,101396.28
2023-03-20T23:07:59.000Z,101390.53
2023-03-20T23:10:26.816Z,101393.72
2023-03-20T23:12:54.304Z,101398.34
2023-03-20T23:15:21.687Z,101403.88
2023-03-20T23:17:50.367Z,101404.09
2023-03-20T23:20:24.185Z,101402.41
2023-03-20T23:22:52.009Z,101399.47
2023-03-20T23:25:30.989Z,101395.53
2023-03-20T23:28:07.297Z,101392.75
2023-03-20T23:30:46.541Z,101386.94
2023-03-20T23:33:19.497Z,101392.03
2023-03-20T23:35:48.366Z,101384.31
2023-03-20T23:38:15.971Z,101392.75
2023-03-20T23:40:49.359Z,101388.84
2023-03-20T23:43:17.166Z,101390.44
2023-03-20T23:45:45.858Z,101380.56
2023-03-20T23:48:15.877Z,101384.78
2023-03-20T23:50:52.631Z,101386.41
2023-03-20T23:53:22.134Z,101382.41
2023-03-20T23:55:52.225Z,101376.31
2023-03-20T23:58:25.231Z,101374.63
